Dades meteomassalio
Diari Summary for Gener 13, 2018 Units:  Metric    English   Both
« Previous Day
Next Day »
Diari Semanal Mensual Anual Personalitzat
  Maxima: Minima: Mijana:
Temperatura: -17.8 °C -19 °C -16.1 °C
Rosada: -17.8 °C -19.7 °C -17.1 °C
Humitat: Humidity % 74 % 86 %
Velocitat del vent: 0 km/h 0 km/h 1.3 km/h
Racha vent: 0 km/h - -
Vent:- - South
Pressio: 0 hPa 34486.4 hPa -
Pluja: 33.02 mm    
Historical Graphs
 
 
Tabular Data for Gener 13, 2018
Time Temperature Dew Point Pressure Wind Wind Speed Wind Gust Humidity Rainfall Rate (Hourly) solar Conditions
-17.8 °C -17.8 °C 0 hPa Calm     Humidity % 0 mm SolarRadiationWatts/m^2 W/m2 Conditions
00:00 -16.6 °C -17.7 °C 34750.5 hPa Calm     86 % 0 mm 0.0 W/m2 CLR
00:12 -16.8 °C -17.9 °C 34750.5 hPa Calm     87 % 0 mm 0.0 W/m2 CLR
00:21 -17.2 °C -18.2 °C 34750.5 hPa Calm     87 % 0 mm 0.0 W/m2 CLR
00:29 -17.2 °C -18.2 °C 34750.5 hPa Calm     87 % 0 mm 0.0 W/m2 CLR
00:36 -16.8 °C -17.9 °C 34750.5 hPa Calm     87 % 0 mm 0.0 W/m2 CLR
00:46 -17.2 °C -18.2 °C 34750.5 hPa Calm     87 % 0 mm 0.0 W/m2 CLR
00:54 -17.2 °C -18.2 °C 34740.4 hPa Calm     88 % 0 mm 0.0 W/m2 CLR
01:11 -17.2 °C -18.2 °C 34740.4 hPa Calm     88 % 0 mm 0.0 W/m2 CLR
01:18 -17.4 °C -18.4 °C 34740.4 hPa Calm     88 % 0 mm 0.0 W/m2 CLR
01:26 -17.4 °C -18.4 °C 34740.4 hPa Calm     88 % 0 mm 0.0 W/m2 CLR
01:42 -17.8 °C -18.7 °C 34726.8 hPa Calm     89 % 0 mm 0.0 W/m2 CLR
01:54 -17.8 °C -18.7 °C 34726.8 hPa Calm     89 % 0 mm 0.0 W/m2 CLR
02:03 -17.8 °C -18.6 °C 34716.7 hPa Calm     90 % 0 mm 0.0 W/m2 CLR
02:12 -17.8 °C -18.6 °C 34716.7 hPa Calm     90 % 0 mm 0.0 W/m2 CLR
02:21 -17.8 °C -18.6 °C 34703.1 hPa Calm     90 % 0 mm 0.0 W/m2 CLR
02:26 -17.8 °C -18.6 °C 34703.1 hPa Calm     90 % 0 mm 0.0 W/m2 CLR
02:34 -18.1 °C -18.9 °C 34703.1 hPa Calm     90 % 0 mm 0.0 W/m2 CLR
02:45 -18.1 °C -18.9 °C 34703.1 hPa Calm     90 % 0 mm 0.0 W/m2 CLR
03:00 -18.1 °C -18.9 °C 34703.1 hPa Calm     90 % 0 mm 0.0 W/m2 CLR
03:06 -18.4 °C -19.2 °C 34703.1 hPa Calm     90 % 0 mm 0.0 W/m2 CLR
03:22 -18.1 °C -18.8 °C 34703.1 hPa Calm     91 % 0 mm 0.0 W/m2 CLR
03:28 -18.1 °C -18.8 °C 34703.1 hPa Calm     91 % 0 mm 0.0 W/m2 CLR
03:48 -18.1 °C -18.8 °C 34703.1 hPa Calm     91 % 0 mm 0.0 W/m2 CLR
04:04 -18.1 °C -18.8 °C 34703.1 hPa Calm     91 % 0 mm 0.0 W/m2 CLR
04:16 -18.4 °C -19.1 °C 34693 hPa Calm     91 % 0 mm 0.0 W/m2 CLR
04:22 -18.4 °C -19.1 °C 34693 hPa Calm     91 % 0 mm 0.0 W/m2 CLR
04:52 -18.4 °C -19.1 °C 34682.8 hPa Calm     91 % 0 mm 0.0 W/m2 CLR
04:58 -18.4 °C -19.1 °C 34682.8 hPa Calm     91 % 0 mm 0.0 W/m2 CLR
05:07 -18.4 °C -19.1 °C 34682.8 hPa Calm     91 % 0 mm 0.0 W/m2 CLR
05:16 -18.4 °C -19.1 °C 34682.8 hPa Calm     91 % 0 mm 0.0 W/m2 CLR
05:34 -18.7 °C -19.4 °C 34669.3 hPa Calm     91 % 0 mm 0.0 W/m2 CLR
05:39 -18.7 °C -19.4 °C 34669.3 hPa Calm     91 % 0 mm 0.0 W/m2 CLR
05:46 -18.7 °C -19.4 °C 34659.1 hPa Calm     91 % 0 mm 0.0 W/m2 CLR
05:52 -19 °C -19.7 °C 34659.1 hPa Calm     91 % 0 mm 0.0 W/m2 CLR
06:05 -19 °C -19.6 °C 34645.6 hPa Calm     92 % 0 mm 0.0 W/m2 CLR
06:17 -19 °C -19.6 °C 34659.1 hPa Calm     92 % 0 mm 0.0 W/m2 CLR
06:44 -19 °C -19.6 °C 34659.1 hPa Calm     92 % 0 mm 0.0 W/m2 CLR
06:55 -19 °C -19.6 °C 34645.6 hPa Calm     92 % 0 mm 0.0 W/m2 CLR
07:14 -19 °C -19.6 °C 34645.6 hPa Calm     92 % 0 mm 0.0 W/m2 CLR
07:23 -19 °C -19.6 °C 34645.6 hPa Calm     92 % 0 mm 0.0 W/m2 CLR
07:36 -18.7 °C -19.3 °C 34635.4 hPa Calm     92 % 0 mm 0.0 W/m2 CLR
07:56 -18.7 °C -19.3 °C 34635.4 hPa Calm     92 % 0 mm 0.0 W/m2 CLR
08:04 -18.7 °C -19.3 °C 34635.4 hPa Calm     92 % 0 mm 0.0 W/m2 CLR
08:16 -18.7 °C -19.3 °C 34635.4 hPa Calm     92 % 0 mm 7.0 W/m2 OVC
09:03 -18.7 °C -19.3 °C 34645.6 hPa Calm     92 % 0 mm 56.0 W/m2 SCT
09:09 -18.4 °C -19 °C 34645.6 hPa Calm     92 % 0 mm 74.0 W/m2 FEW
09:25 -18.4 °C -19 °C 34645.6 hPa Calm     92 % 0 mm 49.0 W/m2 FEW
09:37 -18.1 °C -18.7 °C 34645.6 hPa Calm     92 % 0 mm 83.0 W/m2 FEW
10:09 -17.8 °C -18.5 °C 34645.6 hPa Calm     91 % 7.62 mm 123.0 W/m2 CLR
10:14 -17.8 °C -18.5 °C 34645.6 hPa Calm     91 % 7.62 mm 218.0 W/m2 CLR
10:20 -17.4 °C -18.2 °C 34645.6 hPa Calm     91 % 7.62 mm 218.0 W/m2 CLR
10:27 -17.2 °C -17.9 °C 34645.6 hPa Calm     90 % 7.62 mm 195.0 W/m2 CLR
10:39 -16.8 °C -17.7 °C 34645.6 hPa Calm     89 % 7.62 mm 330.0 W/m2 CLR
10:50 -16.6 °C -17.6 °C 34645.6 hPa Calm     87 % 7.62 mm 183.0 W/m2 CLR
11:07 -15.6 °C -16.9 °C 34659.1 hPa Calm     85 % 0 mm 193.0 W/m2 CLR
11:15 -15.3 °C -16.7 °C 34645.6 hPa Calm     84 % 0 mm 179.0 W/m2 CLR
11:25 -15.3 °C -16.8 °C 34645.6 hPa Calm     83 % 0 mm 274.0 W/m2 CLR
12:10 -13.8 °C -15.9 °C 34625.2 hPa Calm     77 % 0 mm 439.0 W/m2 CLR
12:26 -13.2 °C -15.6 °C 34611.7 hPa East 12.9 km/h 12.9 km/h 74 % 0 mm 392.0 W/m2 CLR
12:31 -13.2 °C -15.4 °C 34611.7 hPa East 9 km/h 9 km/h 75 % 0 mm 496.0 W/m2 CLR
12:42 -13.2 °C -15.4 °C 34601.5 hPa NE 9 km/h 9 km/h 75 % 0 mm 355.0 W/m2 CLR
12:56 -13.2 °C -15.4 °C 34591.4 hPa ENE 9 km/h 9 km/h 76 % 0 mm 339.0 W/m2 CLR
13:03 -13.2 °C -15.2 °C 34591.4 hPa ENE 15 km/h 15 km/h 77 % 0 mm 248.0 W/m2 CLR
13:08 -13.2 °C -15.2 °C 34591.4 hPa ENE 15 km/h 15 km/h 77 % 0 mm 230.0 W/m2 CLR
13:27 -13.4 °C -15.3 °C 34567.7 hPa ENE 9 km/h 9 km/h 79 % 0 mm 134.0 W/m2 CLR
13:34 -13.4 °C -15.3 °C 34577.8 hPa ENE 6 km/h 6 km/h 79 % 0 mm 132.0 W/m2 CLR
13:39 -13.4 °C -15.3 °C 34567.7 hPa ENE 9 km/h 9 km/h 79 % 0 mm 128.0 W/m2 CLR
13:51 -13.4 °C -15.2 °C 34567.7 hPa Calm     80 % 0 mm 113.0 W/m2 CLR
14:00 -13.4 °C -15.2 °C 34554.1 hPa Calm     80 % 0 mm 125.0 W/m2 CLR
14:08 -13.4 °C -15.2 °C 34554.1 hPa Calm     81 % 0 mm 188.0 W/m2 CLR
14:18 -13.4 °C -15.2 °C 34544 hPa East 3.1 km/h 3.1 km/h 81 % 0 mm 146.0 W/m2 CLR
14:29 -13.8 °C -15.4 °C 34533.8 hPa ENE 9 km/h 9 km/h 81 % 0 mm 109.0 W/m2 CLR
14:54 -13.4 °C -15.1 °C 34533.8 hPa Calm     82 % 0 mm 116.0 W/m2 CLR
15:02 -13.4 °C -15.1 °C 34533.8 hPa Calm     82 % 0 mm 111.0 W/m2 CLR
15:10 -13.4 °C -14.9 °C 34533.8 hPa Calm     83 % 0 mm 95.0 W/m2 CLR
15:18 -13.4 °C -14.9 °C 34533.8 hPa Calm     83 % 0 mm 109.0 W/m2 CLR
15:29 -13.4 °C -15.1 °C 34520.3 hPa North 6 km/h 6 km/h 82 % 0 mm 95.0 W/m2 CLR
15:35 -13.4 °C -14.9 °C 34510.1 hPa Calm     83 % 0 mm 102.0 W/m2 CLR
15:49 -13.4 °C -14.9 °C 34510.1 hPa Calm     83 % 0 mm 102.0 W/m2 CLR
15:54 -13.4 °C -14.9 °C 34510.1 hPa Calm     83 % 0 mm 107.0 W/m2 CLR
16:19 -13.4 °C -14.9 °C 34510.1 hPa Calm     83 % 0 mm 195.0 W/m2 CLR
16:25 -13.4 °C -14.9 °C 34496.6 hPa Calm     83 % 0 mm 322.0 W/m2 CLR
16:33 -13.4 °C -15.1 °C 34510.1 hPa Calm     82 % 0 mm 102.0 W/m2 CLR
16:39 -13.4 °C -15.1 °C 34510.1 hPa Calm     82 % 0 mm 51.0 W/m2 FEW
16:47 -13.8 °C -15.3 °C 34496.6 hPa Calm     83 % 0 mm 46.0 W/m2 SCT
16:56 -13.8 °C -15.3 °C 34486.4 hPa Calm     83 % 0 mm 67.0 W/m2 FEW
17:03 -13.8 °C -15.3 °C 34486.4 hPa Calm     83 % 0 mm 35.0 W/m2 BKN
17:10 -14.1 °C -15.6 °C 34486.4 hPa Calm     83 % 0 mm 28.0 W/m2 BKN
17:17 -14.1 °C -15.6 °C 34486.4 hPa Calm     83 % 0 mm 33.0 W/m2 BKN
17:22 -14.4 °C -15.9 °C 34486.4 hPa Calm     83 % 0 mm 26.0 W/m2 BKN
17:40 -15 °C -16.4 °C 34486.4 hPa Calm     84 % 0 mm 9.0 W/m2 BKN
17:46 -15.3 °C -16.6 °C 34486.4 hPa Calm     85 % 0 mm 5.0 W/m2 OVC
17:55 -15.6 °C -16.9 °C 34496.6 hPa NNW 9 km/h 9 km/h 85 % 0 mm 0.0 W/m2 OVC
18:11 -15.3 °C -16.4 °C 34496.6 hPa NNW 17.9 km/h 17.9 km/h 87 % 0 mm 0.0 W/m2 CLR
18:32 -15.6 °C -16.6 °C 34496.6 hPa Calm     88 % 0 mm 0.0 W/m2 CLR
18:38 -15.6 °C -16.6 °C 34510.1 hPa Calm     88 % 0 mm 0.0 W/m2 CLR
18:44 -15.6 °C -16.6 °C 34520.3 hPa Calm     88 % 0 mm 0.0 W/m2 CLR
19:02 -15.6 °C -16.6 °C 34520.3 hPa Calm     89 % 0 mm 0.0 W/m2 CLR
19:08 -15.3 °C -16.2 °C 34520.3 hPa Calm     89 % 0 mm 0.0 W/m2 CLR
19:14 -15.3 °C -16.2 °C 34520.3 hPa Calm     89 % 0 mm 0.0 W/m2 CLR
19:30 -15.3 °C -16.2 °C 34510.1 hPa Calm     89 % 0 mm 0.0 W/m2 CLR
19:38 -15.3 °C -16.2 °C 34510.1 hPa Calm     89 % 0 mm 0.0 W/m2 CLR
20:19 -15.6 °C -16.6 °C 34510.1 hPa West 3.1 km/h 3.1 km/h 89 % 0 mm 0.0 W/m2 CLR
20:24 -15.3 °C -16.2 °C 34510.1 hPa Calm     89 % 0 mm 0.0 W/m2 CLR
20:30 -15.3 °C -16.2 °C 34510.1 hPa Calm     89 % 0 mm 0.0 W/m2 CLR
20:46 -15 °C -15.9 °C 34510.1 hPa Calm     89 % 0 mm 0.0 W/m2 CLR
21:04 -15.3 °C -16.2 °C 34510.1 hPa Calm     89 % 0 mm 0.0 W/m2 CLR
21:13 -15.3 °C -16.2 °C 34510.1 hPa Calm     89 % 0 mm 0.0 W/m2 CLR
21:19 -15.3 °C -16.2 °C 34510.1 hPa Calm     89 % 0 mm 0.0 W/m2 CLR
21:35 -15 °C -16 °C 34533.8 hPa NW 6 km/h 6 km/h 88 % 0 mm 0.0 W/m2 CLR
21:42 -15 °C -16 °C 34533.8 hPa NW 9 km/h 9 km/h 88 % 0 mm 0.0 W/m2 CLR
22:00 -15 °C -16 °C 34533.8 hPa Calm     88 % 7.62 mm 0.0 W/m2 RA
22:06 -15 °C -15.9 °C 34533.8 hPa WNW 3.1 km/h 3.1 km/h 89 % 12.7 mm 0.0 W/m2 RA
22:13 -15 °C -15.9 °C 34544 hPa Calm     89 % 12.7 mm 0.0 W/m2 CLR
22:22 -15 °C -15.8 °C 34533.8 hPa Calm     90 % 12.7 mm 0.0 W/m2 CLR
22:40 -15 °C -15.8 °C 34533.8 hPa Calm     90 % 20.32 mm 0.0 W/m2 CLR
22:49 -15.3 °C -16.1 °C 34533.8 hPa Calm     91 % 20.32 mm 0.0 W/m2 CLR
23:02 -15.3 °C -16.1 °C 34533.8 hPa Calm     91 % 12.7 mm 0.0 W/m2 CLR
23:15 -15.3 °C -16.1 °C 34533.8 hPa Calm     91 % 7.62 mm 0.0 W/m2 CLR
23:27 -15 °C -15.7 °C 34520.3 hPa West 9 km/h 9 km/h 92 % 7.62 mm 0.0 W/m2 CLR
23:47 -15 °C -15.7 °C 34520.3 hPa Calm     91 % 7.62 mm 0.0 W/m2 RA
23:54 -15 °C -15.7 °C 34520.3 hPa Calm     91 % 7.62 mm 0.0 W/m2 CLR
23:59 -15 °C -15.7 °C 34520.3 hPa Calm     91 % 7.62 mm 0.0 W/m2 CLR
Lo Temps de Massalio
Compliments of Weather Underground - 768 kb